Time;durP1;ratioP1;P1;durP2;ratioP2;P2;SDS_P1;SDS_P2;PMS_P1;PMS_P2;Temp;Humidity;BMP_temperature;BMP_pressure;BME280_temperature;BME280_humidity;BME280_pressure;Samples;Min_cycle;Max_cycle;Signal;HPM_P1;HPM_P2
2021/05/03 00:01:56;;;;;;;6.47;3.80;;;;;;;;;;5001375;28;20691;-68
2021/05/03 00:04:22;;;;;;;6.50;4.20;;;;;;;;;;4982082;28;20194;-68
2021/05/03 00:06:48;;;;;;;7.10;4.10;;;;;;;;;;4990207;28;20215;-68
2021/05/03 00:09:13;;;;;;;6.93;4.00;;;;;;;;;;4983026;28;20191;-69
2021/05/03 00:11:39;;;;;;;5.33;4.13;;;;;;;;;;4994865;28;20203;-69
2021/05/03 00:14:04;;;;;;;5.63;3.50;;;;;;;;;;5001490;28;20210;-69
2021/05/03 00:16:30;;;;;;;8.10;4.10;;;;;;;;;;4983585;28;20191;-68
2021/05/03 00:18:55;;;;;;;7.70;3.90;;;;;;;;;;4995294;28;20977;-68
2021/05/03 00:21:21;;;;;;;6.17;3.77;;;;;;;;;;4985056;28;20214;-68
2021/05/03 00:23:47;;;;;;;8.17;4.43;;;;;;;;;;4987280;28;20242;-68
2021/05/03 00:26:13;;;;;;;5.73;3.80;;;;;;;;;;4981932;28;20224;-68
2021/05/03 00:28:39;;;;;;;6.77;4.30;;;;;;;;;;4989320;28;20203;-68
2021/05/03 00:31:05;;;;;;;6.53;4.33;;;;;;;;;;4985233;28;20285;-68
2021/05/03 00:33:30;;;;;;;6.13;4.27;;;;;;;;;;4990721;28;20184;-69
2021/05/03 00:35:56;;;;;;;7.57;3.90;;;;;;;;;;4990036;28;20179;-68
2021/05/03 00:38:21;;;;;;;7.37;4.03;;;;;;;;;;4990179;28;20188;-68
2021/05/03 00:40:46;;;;;;;6.13;3.33;;;;;;;;;;4989975;28;20199;-68
2021/05/03 00:43:17;;;;;;;6.10;4.00;;;;;;;;;;4994058;28;20660;-68
2021/05/03 00:45:43;;;;;;;7.30;3.97;;;;;;;;;;4999758;28;22440;-69
2021/05/03 00:48:08;;;;;;;6.90;4.00;;;;;;;;;;4984572;28;20342;-69
2021/05/03 00:50:34;;;;;;;5.30;3.77;;;;;;;;;;4995354;28;20211;-69
2021/05/03 00:53:00;;;;;;;6.87;3.77;;;;;;;;;;4985444;28;20217;-69
2021/05/03 00:55:27;;;;;;;6.87;3.80;;;;;;;;;;4994705;28;20296;-68
2021/05/03 00:57:52;;;;;;;6.37;3.77;;;;;;;;;;4983523;28;20218;-68
2021/05/03 01:00:19;;;;;;;4.27;3.40;;;;;;;;;;4990307;28;20287;-68
2021/05/03 01:02:44;;;;;;;7.13;3.70;;;;;;;;;;4986489;28;20262;-69
2021/05/03 01:05:10;;;;;;;7.53;3.83;;;;;;;;;;4997633;28;20581;-69
2021/05/03 01:07:35;;;;;;;5.57;3.87;;;;;;;;;;4985017;28;20211;-68
2021/05/03 01:10:01;;;;;;;5.43;3.53;;;;;;;;;;4997907;28;20439;-68
2021/05/03 01:12:27;;;;;;;7.03;3.90;;;;;;;;;;4985372;28;20199;-69
2021/05/03 01:14:52;;;;;;;6.17;4.03;;;;;;;;;;4990002;28;20568;-69
2021/05/03 01:17:18;;;;;;;6.90;4.13;;;;;;;;;;4990349;28;20192;-69
2021/05/03 01:19:43;;;;;;;5.67;3.57;;;;;;;;;;4988532;28;20219;-69
2021/05/03 01:22:09;;;;;;;7.03;3.63;;;;;;;;;;4990581;28;20202;-69
2021/05/03 01:24:34;;;;;;;6.70;3.57;;;;;;;;;;4988197;28;20266;-68
2021/05/03 01:26:59;;;;;;;4.87;3.50;;;;;;;;;;4988649;28;20211;-68
2021/05/03 01:29:25;;;;;;;5.93;3.53;;;;;;;;;;4993759;28;20205;-67
2021/05/03 01:31:52;;;;;;;5.70;3.23;;;;;;;;;;4991812;28;20200;-68
2021/05/03 01:34:18;;;;;;;6.07;3.90;;;;;;;;;;4989342;28;20285;-68
2021/05/03 01:36:46;;;;;;;6.70;3.63;;;;;;;;;;4997200;28;20187;-68
2021/05/03 01:39:15;;;;;;;6.73;3.77;;;;;;;;;;4982690;28;20600;-68
2021/05/03 01:41:41;;;;;;;4.27;3.63;;;;;;;;;;4994112;28;20198;-68
2021/05/03 01:44:10;;;;;;;8.17;4.10;;;;;;;;;;4980469;28;24008;-68
2021/05/03 01:46:37;;;;;;;5.57;3.87;;;;;;;;;;4990758;28;20297;-68
2021/05/03 01:49:04;;;;;;;8.00;4.30;;;;;;;;;;4985740;28;20227;-68
2021/05/03 01:51:30;;;;;;;7.20;5.00;;;;;;;;;;4988384;28;20209;-68
2021/05/03 01:53:56;;;;;;;10.17;4.07;;;;;;;;;;4991464;28;20273;-68
2021/05/03 01:56:24;;;;;;;5.47;3.83;;;;;;;;;;4982190;28;20199;-68
2021/05/03 01:58:49;;;;;;;5.73;3.70;;;;;;;;;;5001631;28;20179;-68
2021/05/03 02:01:15;;;;;;;5.27;4.20;;;;;;;;;;4984772;28;20203;-68
2021/05/03 02:03:40;;;;;;;6.20;4.10;;;;;;;;;;4990373;28;20229;-68
2021/05/03 02:06:06;;;;;;;6.03;4.37;;;;;;;;;;4980018;28;20218;-68
2021/05/03 02:08:32;;;;;;;7.10;4.30;;;;;;;;;;4990207;28;20213;-68
2021/05/03 02:10:58;;;;;;;6.13;4.47;;;;;;;;;;4980673;28;20615;-68
2021/05/03 02:13:24;;;;;;;5.63;4.47;;;;;;;;;;4991205;28;20187;-68
2021/05/03 02:15:50;;;;;;;9.80;4.70;;;;;;;;;;4986647;28;20214;-68
2021/05/03 02:18:16;;;;;;;7.77;4.20;;;;;;;;;;4989380;28;20187;-68
2021/05/03 02:20:42;;;;;;;6.13;4.27;;;;;;;;;;4990248;28;20664;-68
2021/05/03 02:23:09;;;;;;;5.90;4.30;;;;;;;;;;4990185;28;20266;-68
2021/05/03 02:25:34;;;;;;;5.20;4.23;;;;;;;;;;4991452;28;20243;-67
2021/05/03 02:27:59;;;;;;;7.47;4.70;;;;;;;;;;4984978;28;20198;-68
2021/05/03 02:30:26;;;;;;;8.30;4.77;;;;;;;;;;4994812;28;20194;-68
2021/05/03 02:32:51;;;;;;;6.47;4.27;;;;;;;;;;4987659;28;20559;-68
2021/05/03 02:35:19;;;;;;;8.47;4.50;;;;;;;;;;5001561;28;20195;-68
2021/05/03 02:37:47;;;;;;;5.53;3.73;;;;;;;;;;4986443;28;20191;-68
2021/05/03 02:40:13;;;;;;;8.53;4.83;;;;;;;;;;4995029;28;20234;-68
2021/05/03 02:42:39;;;;;;;6.83;4.07;;;;;;;;;;4987486;28;20207;-68
2021/05/03 02:45:05;;;;;;;7.30;4.40;;;;;;;;;;4995570;28;20226;-67
2021/05/03 02:47:31;;;;;;;7.60;4.43;;;;;;;;;;4985441;28;20215;-69
2021/05/03 02:49:56;;;;;;;7.00;4.23;;;;;;;;;;4994331;28;20241;-68
2021/05/03 02:52:28;;;;;;;7.97;4.43;;;;;;;;;;4986281;28;20191;-68
2021/05/03 02:54:54;;;;;;;7.57;4.23;;;;;;;;;;5008387;28;20616;-69
2021/05/03 02:57:19;;;;;;;7.87;4.90;;;;;;;;;;4992511;28;20179;-69
2021/05/03 02:59:44;;;;;;;7.57;4.70;;;;;;;;;;4990577;28;20554;-69
2021/05/03 03:02:09;;;;;;;7.20;4.90;;;;;;;;;;4995031;28;20261;-69
2021/05/03 03:04:35;;;;;;;5.33;4.07;;;;;;;;;;4987700;28;20202;-69
2021/05/03 03:07:00;;;;;;;9.63;4.73;;;;;;;;;;4995483;28;20305;-69
2021/05/03 03:09:26;;;;;;;6.53;4.63;;;;;;;;;;4996597;28;20214;-69
2021/05/03 03:11:51;;;;;;;6.33;4.10;;;;;;;;;;4992557;28;20191;-68
2021/05/03 03:14:16;;;;;;;8.00;4.60;;;;;;;;;;4982904;28;20764;-68
2021/05/03 03:16:42;;;;;;;7.57;4.43;;;;;;;;;;4993848;28;20194;-68
2021/05/03 03:19:08;;;;;;;7.13;5.37;;;;;;;;;;4984833;28;20547;-68
2021/05/03 03:21:33;;;;;;;5.63;3.73;;;;;;;;;;4994782;28;20195;-68
2021/05/03 03:23:58;;;;;;;8.00;4.80;;;;;;;;;;4986752;28;20194;-68
2021/05/03 03:26:24;;;;;;;13.90;4.80;;;;;;;;;;4993423;28;20227;-68
2021/05/03 03:28:50;;;;;;;7.27;4.50;;;;;;;;;;4989631;28;20214;-68
2021/05/03 03:31:15;;;;;;;6.23;4.13;;;;;;;;;;4985531;28;20188;-68
2021/05/03 03:33:41;;;;;;;7.77;4.80;;;;;;;;;;4999139;28;20286;-68
2021/05/03 03:36:06;;;;;;;4.33;3.47;;;;;;;;;;4985932;28;20282;-69
2021/05/03 03:38:33;;;;;;;7.50;5.00;;;;;;;;;;4994728;28;20194;-69
2021/05/03 03:40:59;;;;;;;7.13;4.90;;;;;;;;;;4986946;28;20195;-67
2021/05/03 03:43:24;;;;;;;7.37;5.07;;;;;;;;;;4989534;28;20195;-67
2021/05/03 03:45:49;;;;;;;10.40;6.70;;;;;;;;;;4983297;28;20206;-68
2021/05/03 03:48:15;;;;;;;8.33;5.10;;;;;;;;;;4998881;28;20234;-68
2021/05/03 03:50:40;;;;;;;8.03;5.30;;;;;;;;;;5002200;28;20273;-68
2021/05/03 03:53:05;;;;;;;9.83;6.07;;;;;;;;;;4995901;28;20192;-68
2021/05/03 03:55:31;;;;;;;7.10;5.50;;;;;;;;;;4989770;28;20571;-68
2021/05/03 03:57:56;;;;;;;9.13;5.80;;;;;;;;;;4994573;28;20190;-68
2021/05/03 04:00:22;;;;;;;9.03;5.63;;;;;;;;;;4994801;28;20191;-69
2021/05/03 04:02:49;;;;;;;10.73;5.80;;;;;;;;;;4985059;28;20241;-68
2021/05/03 04:05:26;;;;;;;10.50;6.10;;;;;;;;;;4993313;28;20187;-68
2021/05/03 04:26:23;;;;;;;8.63;6.70;;;;;;;;;;4993317;28;20221;-69
2021/05/03 04:28:51;;;;;;;10.97;6.70;;;;;;;;;;4981871;28;20195;-69
2021/05/03 04:31:20;;;;;;;10.93;6.60;;;;;;;;;;4990695;28;20195;-69
2021/05/03 04:33:46;;;;;;;14.03;7.87;;;;;;;;;;4987067;28;20257;-69
2021/05/03 04:36:12;;;;;;;13.47;7.43;;;;;;;;;;4991089;28;20187;-68
2021/05/03 04:38:38;;;;;;;11.33;7.00;;;;;;;;;;4985605;28;20203;-68
2021/05/03 04:41:05;;;;;;;13.93;8.53;;;;;;;;;;4990941;28;20187;-69
2021/05/03 04:43:30;;;;;;;13.47;7.60;;;;;;;;;;4985641;28;20195;-69
2021/05/03 04:45:56;;;;;;;12.63;8.30;;;;;;;;;;4991813;28;20203;-69
2021/05/03 04:48:21;;;;;;;13.77;8.87;;;;;;;;;;4979221;28;20238;-69
2021/05/03 04:50:47;;;;;;;11.13;6.30;;;;;;;;;;4993135;28;20187;-69
2021/05/03 04:53:12;;;;;;;11.83;8.27;;;;;;;;;;4988965;28;20195;-69
2021/05/03 04:55:38;;;;;;;11.43;7.97;;;;;;;;;;4983618;28;20195;-69
2021/05/03 04:58:04;;;;;;;13.70;8.60;;;;;;;;;;4993945;28;20176;-69
2021/05/03 05:00:29;;;;;;;13.33;8.23;;;;;;;;;;4983349;28;20198;-69
2021/05/03 05:02:54;;;;;;;11.13;7.27;;;;;;;;;;4992081;28;20549;-70
2021/05/03 05:05:20;;;;;;;14.83;7.77;;;;;;;;;;4982483;28;20229;-69
2021/05/03 05:07:45;;;;;;;18.57;7.83;;;;;;;;;;4991156;28;20223;-69
2021/05/03 05:10:12;;;;;;;10.70;7.23;;;;;;;;;;4978882;28;20187;-69
2021/05/03 05:12:37;;;;;;;11.57;8.07;;;;;;;;;;4998066;28;20653;-68
2021/05/03 05:15:05;;;;;;;13.23;7.87;;;;;;;;;;4981341;28;20198;-69
2021/05/03 05:17:32;;;;;;;12.43;8.33;;;;;;;;;;4992015;28;20676;-68
2021/05/03 05:19:58;;;;;;;14.83;8.07;;;;;;;;;;4981208;28;20279;-68
2021/05/03 05:22:24;;;;;;;12.07;8.10;;;;;;;;;;4987314;28;20259;-68
2021/05/03 05:24:49;;;;;;;10.33;7.87;;;;;;;;;;4986342;28;20206;-69
2021/05/03 05:27:15;;;;;;;13.17;7.93;;;;;;;;;;4983017;28;20199;-69
2021/05/03 05:29:40;;;;;;;13.77;8.17;;;;;;;;;;4990994;28;20693;-69
2021/05/03 05:32:06;;;;;;;11.70;7.53;;;;;;;;;;4980772;28;20202;-69
2021/05/03 05:34:31;;;;;;;10.90;7.60;;;;;;;;;;4994657;28;20192;-69
2021/05/03 05:36:57;;;;;;;11.70;7.73;;;;;;;;;;4989179;28;20195;-69
2021/05/03 05:39:22;;;;;;;11.50;8.20;;;;;;;;;;4989750;28;20191;-68
2021/05/03 05:41:47;;;;;;;8.80;6.70;;;;;;;;;;4979521;28;20516;-68
2021/05/03 05:44:13;;;;;;;12.10;8.10;;;;;;;;;;4985248;28;20187;-68
2021/05/03 05:46:39;;;;;;;11.90;8.63;;;;;;;;;;4980752;28;20211;-69
2021/05/03 05:49:06;;;;;;;12.40;7.60;;;;;;;;;;4991102;28;20264;-68
2021/05/03 05:51:31;;;;;;;15.43;8.33;;;;;;;;;;4982655;28;20191;-68
2021/05/03 05:53:56;;;;;;;12.93;9.33;;;;;;;;;;4988739;28;20246;-69
2021/05/03 05:56:22;;;;;;;12.83;9.13;;;;;;;;;;4992667;28;20176;-69
2021/05/03 05:58:48;;;;;;;17.80;9.30;;;;;;;;;;4983006;28;20191;-69
2021/05/03 06:01:13;;;;;;;14.50;9.43;;;;;;;;;;4994059;28;20241;-69
2021/05/03 06:03:39;;;;;;;11.03;8.87;;;;;;;;;;4980438;28;20211;-69
2021/05/03 06:06:05;;;;;;;12.77;8.20;;;;;;;;;;4988583;28;20198;-69
2021/05/03 06:08:30;;;;;;;10.07;8.17;;;;;;;;;;4984320;28;20689;-69
2021/05/03 06:10:56;;;;;;;12.63;9.20;;;;;;;;;;4994050;28;20289;-68
2021/05/03 06:13:21;;;;;;;14.80;9.63;;;;;;;;;;4982716;28;20206;-69
2021/05/03 06:15:46;;;;;;;12.67;8.30;;;;;;;;;;4994983;28;20187;-69
2021/05/03 06:18:12;;;;;;;14.03;9.63;;;;;;;;;;4992706;28;20275;-69
2021/05/03 06:20:38;;;;;;;14.17;9.27;;;;;;;;;;4998113;28;20275;-69
2021/05/03 06:23:05;;;;;;;14.87;9.47;;;;;;;;;;4993159;28;20226;-69
2021/05/03 06:25:31;;;;;;;12.07;8.37;;;;;;;;;;4992469;28;20187;-69
2021/05/03 06:27:57;;;;;;;15.80;9.93;;;;;;;;;;4995654;28;20263;-69
2021/05/03 06:30:24;;;;;;;13.97;9.07;;;;;;;;;;4986812;28;20627;-69
2021/05/03 06:32:50;;;;;;;13.87;8.73;;;;;;;;;;4994734;28;20210;-67
2021/05/03 06:35:16;;;;;;;11.00;8.53;;;;;;;;;;4984309;28;20187;-68
2021/05/03 06:37:41;;;;;;;14.97;8.33;;;;;;;;;;4998357;28;20262;-67
2021/05/03 06:40:07;;;;;;;11.33;8.17;;;;;;;;;;4985088;28;20202;-69
2021/05/03 06:42:33;;;;;;;12.43;8.80;;;;;;;;;;4995438;28;20549;-68
2021/05/03 06:44:59;;;;;;;13.50;8.03;;;;;;;;;;4983954;28;20595;-69
2021/05/03 06:47:26;;;;;;;14.07;8.00;;;;;;;;;;4991879;28;20218;-69
2021/05/03 06:49:51;;;;;;;12.43;8.73;;;;;;;;;;4985410;28;20231;-69
2021/05/03 06:52:17;;;;;;;11.80;7.87;;;;;;;;;;4988253;28;20197;-69
2021/05/03 06:54:42;;;;;;;14.30;8.30;;;;;;;;;;4985527;28;20270;-69
2021/05/03 06:57:08;;;;;;;13.00;8.10;;;;;;;;;;4992934;28;20218;-68
2021/05/03 06:59:33;;;;;;;12.20;8.60;;;;;;;;;;4995071;28;20572;-68
2021/05/03 07:01:58;;;;;;;9.20;7.47;;;;;;;;;;4987393;28;20199;-69
2021/05/03 07:04:23;;;;;;;11.82;8.35;;;;;;;;;;4994776;28;20270;-69
2021/05/03 07:06:49;;;;;;;10.25;7.72;;;;;;;;;;4986785;28;20747;-69
2021/05/03 07:09:14;;;;;;;11.75;7.75;;;;;;;;;;4991663;28;20243;-69
2021/05/03 07:11:41;;;;;;;11.38;7.65;;;;;;;;;;4982768;28;20187;-69
2021/05/03 07:14:07;;;;;;;11.32;7.32;;;;;;;;;;4991614;28;21950;-68
2021/05/03 07:16:33;;;;;;;12.50;7.55;;;;;;;;;;4983571;28;20178;-69
2021/05/03 07:18:59;;;;;;;10.73;7.63;;;;;;;;;;4993522;28;20207;-69
2021/05/03 07:21:30;;;;;;;11.27;7.31;;;;;;;;;;4490723;28;10002898;-69
2021/05/03 07:23:56;;;;;;;10.55;8.00;;;;;;;;;;4989514;28;20435;-68
2021/05/03 07:26:21;;;;;;;10.52;7.80;;;;;;;;;;4980388;28;20211;-68
2021/05/03 07:28:47;;;;;;;9.18;7.38;;;;;;;;;;4993601;28;20210;-70
2021/05/03 07:31:12;;;;;;;11.57;8.10;;;;;;;;;;4985748;28;20267;-68
2021/05/03 07:33:38;;;;;;;13.73;7.95;;;;;;;;;;4980365;28;20903;-68
2021/05/03 07:36:03;;;;;;;11.73;8.07;;;;;;;;;;4988379;28;20554;-69
2021/05/03 07:38:30;;;;;;;11.77;7.80;;;;;;;;;;4982803;28;20202;-69
2021/05/03 07:40:55;;;;;;;15.75;8.00;;;;;;;;;;4987914;28;20225;-69
2021/05/03 07:43:23;;;;;;;9.32;7.35;;;;;;;;;;4978962;28;20225;-68
2021/05/03 07:45:48;;;;;;;11.35;8.15;;;;;;;;;;4986406;28;20266;-68
2021/05/03 07:48:14;;;;;;;19.58;8.13;;;;;;;;;;4976645;28;20205;-68
2021/05/03 07:50:41;;;;;;;14.82;8.40;;;;;;;;;;4993213;28;20194;-69
2021/05/03 07:53:06;;;;;;;13.18;8.27;;;;;;;;;;4984929;28;20187;-68
2021/05/03 07:55:32;;;;;;;10.35;7.68;;;;;;;;;;4988478;28;20188;-69
2021/05/03 07:57:59;;;;;;;11.00;7.65;;;;;;;;;;4977292;28;20464;-69
2021/05/03 08:00:25;;;;;;;10.90;7.93;;;;;;;;;;4988798;28;20188;-68
2021/05/03 08:02:50;;;;;;;9.73;7.57;;;;;;;;;;4993369;28;20271;-69
2021/05/03 08:05:15;;;;;;;10.85;7.28;;;;;;;;;;4979561;28;20201;-68
2021/05/03 08:07:41;;;;;;;11.75;7.55;;;;;;;;;;4986086;28;20320;-68
2021/05/03 08:10:07;;;;;;;13.65;7.53;;;;;;;;;;4977242;28;20531;-68
2021/05/03 08:12:32;;;;;;;14.68;8.07;;;;;;;;;;4989807;28;20246;-69
2021/05/03 08:15:03;;;;;;;13.98;7.63;;;;;;;;;;4980760;28;20246;-68
2021/05/03 08:17:28;;;;;;;11.00;7.65;;;;;;;;;;4990188;28;20195;-69
2021/05/03 08:19:54;;;;;;;10.35;7.68;;;;;;;;;;4981899;28;20764;-69
2021/05/03 08:22:19;;;;;;;12.50;8.25;;;;;;;;;;4988148;28;20204;-69
2021/05/03 08:24:44;;;;;;;10.52;7.68;;;;;;;;;;4982867;28;20195;-69
2021/05/03 08:27:10;;;;;;;13.15;7.05;;;;;;;;;;4989919;28;20215;-69
2021/05/03 08:29:36;;;;;;;12.82;7.75;;;;;;;;;;4971949;28;20191;-68
2021/05/03 08:32:02;;;;;;;13.18;7.68;;;;;;;;;;4989146;28;20907;-69
2021/05/03 08:34:28;;;;;;;10.32;7.50;;;;;;;;;;4987430;28;20886;-69
2021/05/03 08:36:56;;;;;;;11.32;7.55;;;;;;;;;;4978014;28;20249;-69
2021/05/03 08:39:23;;;;;;;12.95;7.85;;;;;;;;;;4991127;28;20203;-69
2021/05/03 08:41:48;;;;;;;11.07;7.85;;;;;;;;;;4987121;28;20198;-69
2021/05/03 08:44:14;;;;;;;12.57;7.80;;;;;;;;;;4989477;28;20633;-69
2021/05/03 08:46:43;;;;;;;12.30;8.13;;;;;;;;;;4980849;28;20277;-69
2021/05/03 08:51:47;;;;;;;13.00;8.98;;;;;;;;;;4981507;28;20290;-68
2021/05/03 08:56:45;;;;;;;14.00;8.77;;;;;;;;;;4978900;28;20238;-69
2021/05/03 08:59:13;;;;;;;14.32;9.25;;;;;;;;;;4987860;28;20651;-69
2021/05/03 09:01:46;;;;;;;13.35;9.32;;;;;;;;;;4982818;28;20191;-69
2021/05/03 09:04:13;;;;;;;13.63;9.23;;;;;;;;;;4986455;28;20180;-69
2021/05/03 09:06:38;;;;;;;13.73;9.30;;;;;;;;;;4980028;28;20207;-69
2021/05/03 09:09:10;;;;;;;14.43;9.32;;;;;;;;;;4987151;28;20202;-69
2021/05/03 09:11:36;;;;;;;12.10;9.32;;;;;;;;;;4985702;28;20218;-69
2021/05/03 09:14:10;;;;;;;11.73;8.68;;;;;;;;;;4979456;28;20603;-69
2021/05/03 09:16:45;;;;;;;13.80;9.45;;;;;;;;;;4992376;28;20262;-70
2021/05/03 09:19:12;;;;;;;12.00;8.95;;;;;;;;;;4980180;28;20655;-69
2021/05/03 09:21:38;;;;;;;13.50;9.05;;;;;;;;;;4986607;28;20183;-69
2021/05/03 09:24:15;;;;;;;11.75;9.75;;;;;;;;;;4981056;28;20485;-69
2021/05/03 09:26:49;;;;;;;12.25;9.63;;;;;;;;;;4984551;28;20219;-70
2021/05/03 09:29:47;;;;;;;13.02;9.52;;;;;;;;;;4986125;28;20222;-69
2021/05/03 09:32:21;;;;;;;16.02;9.95;;;;;;;;;;4978715;28;20211;-70
2021/05/03 09:34:54;;;;;;;16.90;10.15;;;;;;;;;;4981161;28;20722;-69
2021/05/03 09:37:33;;;;;;;13.20;9.77;;;;;;;;;;4989278;28;20198;-69
2021/05/03 09:40:06;;;;;;;14.00;9.70;;;;;;;;;;4979199;28;20195;-69
2021/05/03 09:42:51;;;;;;;14.23;10.05;;;;;;;;;;4993547;28;20217;-69
2021/05/03 09:45:22;;;;;;;12.68;9.60;;;;;;;;;;4985475;28;20187;-72
2021/05/03 09:47:50;;;;;;;15.75;10.18;;;;;;;;;;4990266;28;20222;-69
2021/05/03 09:50:24;;;;;;;13.63;10.18;;;;;;;;;;4981179;28;20227;-70
2021/05/03 09:53:10;;;;;;;12.27;10.00;;;;;;;;;;4993957;28;20579;-70
2021/05/03 09:55:52;;;;;;;14.60;10.15;;;;;;;;;;4988651;28;20183;-69
2021/05/03 09:58:24;;;;;;;15.63;10.77;;;;;;;;;;4989743;28;20197;-70
2021/05/03 10:00:55;;;;;;;13.80;9.77;;;;;;;;;;4981064;28;20195;-68
2021/05/03 10:03:36;;;;;;;13.43;9.85;;;;;;;;;;4988665;28;20215;-69
2021/05/03 10:06:04;;;;;;;11.85;9.95;;;;;;;;;;4989125;28;20738;-68
2021/05/03 10:08:29;;;;;;;14.75;10.23;;;;;;;;;;4994711;28;20279;-69
2021/05/03 10:10:59;;;;;;;12.68;9.23;;;;;;;;;;4989327;28;20269;-69
2021/05/03 10:13:25;;;;;;;13.23;9.80;;;;;;;;;;4991878;28;20199;-69
2021/05/03 10:15:55;;;;;;;12.77;10.32;;;;;;;;;;4982362;28;20191;-69
2021/05/03 10:18:21;;;;;;;13.18;10.30;;;;;;;;;;4992100;28;20691;-69
2021/05/03 10:20:47;;;;;;;11.80;9.80;;;;;;;;;;4985512;28;20273;-69
2021/05/03 10:23:13;;;;;;;14.60;10.38;;;;;;;;;;4991504;28;20195;-68
2021/05/03 10:25:41;;;;;;;14.35;9.98;;;;;;;;;;4991100;28;20603;-69
2021/05/03 10:28:07;;;;;;;11.88;9.10;;;;;;;;;;4990828;28;20246;-69
2021/05/03 10:30:41;;;;;;;12.48;9.45;;;;;;;;;;4995604;28;20218;-69
2021/05/03 10:33:09;;;;;;;12.63;9.60;;;;;;;;;;4989276;28;20709;-69
2021/05/03 10:35:47;;;;;;;12.15;9.00;;;;;;;;;;4993299;28;20179;-70
2021/05/03 10:38:38;;;;;;;11.82;9.57;;;;;;;;;;4980714;28;20198;-69
2021/05/03 10:41:22;;;;;;;13.18;9.43;;;;;;;;;;5000795;28;20187;-71
2021/05/03 10:43:48;;;;;;;12.93;9.80;;;;;;;;;;4999348;28;20542;-70
2021/05/03 10:49:13;;;;;;;11.55;9.48;;;;;;;;;;4968905;28;20718;-69
2021/05/03 10:51:54;;;;;;;11.50;9.60;;;;;;;;;;4990838;28;20221;-68
2021/05/03 10:54:26;;;;;;;11.95;9.00;;;;;;;;;;4995379;28;20194;-68
2021/05/03 10:56:53;;;;;;;11.90;8.20;;;;;;;;;;4992588;28;20668;-68
2021/05/03 10:59:19;;;;;;;11.05;8.80;;;;;;;;;;4983332;28;20214;-69
2021/05/03 11:02:06;;;;;;;11.60;9.55;;;;;;;;;;4990641;28;20248;-69
2021/05/03 11:04:33;;;;;;;14.50;9.23;;;;;;;;;;4986888;28;20685;-69
2021/05/03 11:06:58;;;;;;;12.63;9.20;;;;;;;;;;4994251;28;20608;-69
2021/05/03 11:09:42;;;;;;;12.63;10.10;;;;;;;;;;4982655;28;20341;-70
2021/05/03 11:12:09;;;;;;;11.90;10.23;;;;;;;;;;4990637;28;20245;-69
2021/05/03 11:14:37;;;;;;;16.77;11.45;;;;;;;;;;4982332;28;20199;-69
2021/05/03 11:17:10;;;;;;;12.88;10.50;;;;;;;;;;4989292;28;20214;-69
2021/05/03 11:22:38;;;;;;;13.32;11.07;;;;;;;;;;4988919;28;20192;-69
2021/05/03 11:25:10;;;;;;;13.23;9.82;;;;;;;;;;4981785;28;20182;-69
2021/05/03 11:27:46;;;;;;;14.75;10.48;;;;;;;;;;4989243;28;20301;-70
2021/05/03 11:30:22;;;;;;;13.70;10.10;;;;;;;;;;4985861;28;20281;-69
2021/05/03 11:32:51;;;;;;;14.32;10.55;;;;;;;;;;4994192;28;20201;-70
2021/05/03 11:45:34;;;;;;;10.45;8.65;;;;;;;;;;4983993;28;20206;-70
2021/05/03 11:48:00;;;;;;;10.85;9.05;;;;;;;;;;4989740;28;20203;-70
2021/05/03 11:50:28;;;;;;;9.45;7.53;;;;;;;;;;4985636;28;20286;-68
2021/05/03 11:52:54;;;;;;;8.32;7.00;;;;;;;;;;4990099;28;20195;-69
2021/05/03 11:55:22;;;;;;;8.80;7.13;;;;;;;;;;4977159;28;20225;-70
2021/05/03 11:57:48;;;;;;;8.45;7.18;;;;;;;;;;4986306;28;20183;-69
2021/05/03 12:00:22;;;;;;;9.27;7.78;;;;;;;;;;4982381;28;20604;-69
2021/05/03 12:02:59;;;;;;;14.13;9.30;;;;;;;;;;4988859;28;20213;-69
2021/05/03 12:05:25;;;;;;;15.48;9.40;;;;;;;;;;4981813;28;20198;-69
2021/05/03 12:07:50;;;;;;;10.52;9.20;;;;;;;;;;4987965;28;20203;-69
2021/05/03 12:10:18;;;;;;;14.32;10.05;;;;;;;;;;4999351;28;20187;-69
2021/05/03 12:12:54;;;;;;;12.18;9.98;;;;;;;;;;4985538;28;20202;-69
2021/05/03 12:15:27;;;;;;;11.30;8.88;;;;;;;;;;4999515;28;20174;-69
2021/05/03 12:17:54;;;;;;;10.55;8.38;;;;;;;;;;4985126;28;20191;-69
2021/05/03 12:20:22;;;;;;;9.68;7.43;;;;;;;;;;4991002;28;20187;-69
2021/05/03 12:23:03;;;;;;;9.30;6.38;;;;;;;;;;4977000;28;20260;-69
2021/05/03 12:25:50;;;;;;;8.80;7.15;;;;;;;;;;4985775;28;20702;-69
2021/05/03 12:28:24;;;;;;;13.55;7.57;;;;;;;;;;4980060;28;20269;-69
2021/05/03 12:30:50;;;;;;;8.02;7.22;;;;;;;;;;4986246;28;20194;-69
2021/05/03 12:33:18;;;;;;;10.32;8.30;;;;;;;;;;4981973;28;20195;-69
2021/05/03 12:35:52;;;;;;;10.25;8.05;;;;;;;;;;4989741;28;20191;-69
2021/05/03 12:38:22;;;;;;;10.52;9.40;;;;;;;;;;4985155;28;20530;-69
2021/05/03 12:40:47;;;;;;;12.23;10.30;;;;;;;;;;4995086;28;20223;-69
2021/05/03 12:43:14;;;;;;;9.05;6.63;;;;;;;;;;4979505;28;21147;-70
2021/05/03 12:52:09;;;;;;;8.95;5.13;;;;;;;;;;4990011;28;20579;-71
2021/05/03 12:54:18;;;;;;;6.60;4.72;;;;;;;;;;4968912;28;20690;-72
2021/05/03 12:57:00;;;;;;;5.95;4.70;;;;;;;;;;4992730;28;20562;-70
2021/05/03 13:00:03;;;;;;;6.10;4.82;;;;;;;;;;4641545;28;10000496;-70
2021/05/03 13:05:04;;;;;;;5.30;4.65;;;;;;;;;;4983925;28;20292;-70
2021/05/03 13:29:41;;;;;;;9.73;7.28;;;;;;;;;;4986040;28;20256;-70
2021/05/03 13:32:08;;;;;;;10.77;8.38;;;;;;;;;;4985899;28;20631;-70
2021/05/03 13:34:34;;;;;;;9.55;7.38;;;;;;;;;;4993479;28;20214;-70
2021/05/03 13:36:59;;;;;;;7.53;6.50;;;;;;;;;;4978612;28;20201;-70
2021/05/03 13:39:25;;;;;;;8.93;7.45;;;;;;;;;;4987749;28;20202;-70
2021/05/03 13:41:51;;;;;;;11.80;7.63;;;;;;;;;;4979773;28;20242;-70
2021/05/03 13:44:18;;;;;;;8.82;7.93;;;;;;;;;;4990511;28;20191;-70
2021/05/03 13:46:43;;;;;;;8.93;7.15;;;;;;;;;;4982737;28;20260;-71
2021/05/03 13:49:09;;;;;;;10.23;7.20;;;;;;;;;;4986833;28;20602;-69
2021/05/03 13:51:34;;;;;;;7.60;6.80;;;;;;;;;;4979218;28;20187;-69
2021/05/03 13:54:02;;;;;;;10.35;7.68;;;;;;;;;;4989452;28;20175;-70
2021/05/03 13:56:27;;;;;;;12.02;9.70;;;;;;;;;;4977322;28;20210;-70
2021/05/03 13:58:53;;;;;;;12.50;9.43;;;;;;;;;;4990346;28;20184;-70
2021/05/03 14:01:18;;;;;;;11.25;9.30;;;;;;;;;;4977390;28;20210;-70
2021/05/03 14:03:44;;;;;;;11.82;9.63;;;;;;;;;;4991408;28;20196;-70
2021/05/03 14:06:12;;;;;;;12.52;10.00;;;;;;;;;;4988624;28;20247;-70
2021/05/03 14:08:38;;;;;;;13.43;9.85;;;;;;;;;;4980461;28;20195;-70
2021/05/03 14:11:06;;;;;;;15.23;9.95;;;;;;;;;;4989896;28;20493;-70
2021/05/03 14:13:33;;;;;;;11.73;9.98;;;;;;;;;;4982686;28;20192;-70
2021/05/03 14:15:58;;;;;;;12.95;10.10;;;;;;;;;;4993573;28;20230;-70
2021/05/03 14:18:24;;;;;;;12.45;10.07;;;;;;;;;;4980044;28;20202;-70
2021/05/03 14:20:50;;;;;;;14.55;10.55;;;;;;;;;;4985255;28;20309;-70
2021/05/03 14:23:16;;;;;;;12.52;9.70;;;;;;;;;;4984191;28;20183;-69
2021/05/03 14:25:42;;;;;;;11.73;10.52;;;;;;;;;;4989480;28;20196;-69
2021/05/03 14:28:12;;;;;;;12.60;10.27;;;;;;;;;;4981552;28;20203;-70
2021/05/03 14:30:45;;;;;;;14.68;10.77;;;;;;;;;;4990634;28;20199;-69
2021/05/03 14:33:23;;;;;;;11.82;10.45;;;;;;;;;;4986972;28;20297;-70
2021/05/03 14:35:49;;;;;;;12.25;10.35;;;;;;;;;;4998441;28;20527;-70
2021/05/03 14:38:15;;;;;;;13.45;10.98;;;;;;;;;;4989498;28;20190;-70
2021/05/03 14:40:40;;;;;;;12.23;10.18;;;;;;;;;;4993209;28;20652;-70
2021/05/03 14:43:09;;;;;;;14.50;10.05;;;;;;;;;;4996107;28;20270;-70
2021/05/03 14:45:42;;;;;;;9.95;8.88;;;;;;;;;;4984546;28;20650;-69
2021/05/03 14:50:53;;;;;;;9.70;8.70;;;;;;;;;;4983901;28;20222;-69
2021/05/03 14:53:34;;;;;;;10.07;8.57;;;;;;;;;;4993719;28;20210;-69
2021/05/03 14:56:00;;;;;;;10.95;9.23;;;;;;;;;;4983718;28;20205;-69
2021/05/03 14:58:25;;;;;;;10.00;7.95;;;;;;;;;;4993184;28;20196;-69
2021/05/03 15:00:51;;;;;;;8.52;7.72;;;;;;;;;;4982233;28;20278;-70
2021/05/03 15:03:16;;;;;;;11.55;7.55;;;;;;;;;;4994647;28;20215;-70
2021/05/03 15:05:43;;;;;;;8.38;7.53;;;;;;;;;;4986188;28;20204;-70
2021/05/03 15:08:10;;;;;;;10.35;7.55;;;;;;;;;;4993463;28;20207;-70
2021/05/03 15:10:36;;;;;;;9.77;7.45;;;;;;;;;;4984256;28;20768;-70
2021/05/03 15:13:12;;;;;;;9.98;7.97;;;;;;;;;;4994450;28;20187;-70
2021/05/03 15:15:44;;;;;;;9.77;7.80;;;;;;;;;;4987973;28;20599;-70
2021/05/03 15:18:29;;;;;;;10.73;7.93;;;;;;;;;;4996655;28;20179;-70
2021/05/03 15:23:38;;;;;;;8.70;7.18;;;;;;;;;;4994773;28;20210;-71
2021/05/03 15:26:04;;;;;;;8.32;7.32;;;;;;;;;;4985014;28;20236;-70
2021/05/03 15:28:40;;;;;;;10.00;7.60;;;;;;;;;;4993514;28;20191;-70
2021/05/03 15:33:38;;;;;;;12.75;7.78;;;;;;;;;;5000482;28;20190;-70
2021/05/03 15:36:07;;;;;;;9.35;7.43;;;;;;;;;;4979875;28;20274;-71
2021/05/03 15:38:35;;;;;;;9.60;7.95;;;;;;;;;;4997194;28;20931;-70
2021/05/03 15:41:01;;;;;;;11.30;7.82;;;;;;;;;;4994541;28;20199;-71
2021/05/03 15:43:29;;;;;;;11.20;8.10;;;;;;;;;;4989246;28;20195;-70
2021/05/03 15:45:55;;;;;;;9.75;6.80;;;;;;;;;;4991508;28;20183;-70
2021/05/03 15:48:21;;;;;;;10.27;7.53;;;;;;;;;;4987464;28;20717;-70
2021/05/03 15:50:50;;;;;;;10.50;7.68;;;;;;;;;;4992154;28;20219;-70
2021/05/03 15:53:16;;;;;;;9.55;7.57;;;;;;;;;;4980516;28;20198;-71
2021/05/03 15:55:42;;;;;;;10.15;7.50;;;;;;;;;;4988469;28;20586;-71